sensor_id;sensor_type;location;lat;lon;timestamp;pressure;altitude;pressure_sealevel;temperature;humidity
16094;BME280;8151;47.824;12.092;2024-02-14T00:00:33;96744.94;;;4.79;66.32
16094;BME280;8151;47.824;12.092;2024-02-14T00:03:02;96748.53;;;4.78;66.56
16094;BME280;8151;47.824;12.092;2024-02-14T00:05:30;96743.28;;;4.78;66.84
16094;BME280;8151;47.824;12.092;2024-02-14T00:07:59;96753.88;;;4.76;66.37
16094;BME280;8151;47.824;12.092;2024-02-14T00:10:27;96746.16;;;4.74;66.26
16094;BME280;8151;47.824;12.092;2024-02-14T00:12:57;96739.25;;;4.73;66.47
16094;BME280;8151;47.824;12.092;2024-02-14T00:15:26;96742.69;;;4.74;66.08
16094;BME280;8151;47.824;12.092;2024-02-14T00:17:54;96746.28;;;4.73;66.22
16094;BME280;8151;47.824;12.092;2024-02-14T00:20:23;96753.41;;;4.71;66.55
16094;BME280;8151;47.824;12.092;2024-02-14T00:22:52;96762.47;;;4.67;66.26
16094;BME280;8151;47.824;12.092;2024-02-14T00:25:20;96766.06;;;4.66;66.45
16094;BME280;8151;47.824;12.092;2024-02-14T00:27:48;96758.44;;;4.63;66.40
16094;BME280;8151;47.824;12.092;2024-02-14T00:30:19;96768.09;;;4.62;66.85
16094;BME280;8151;47.824;12.092;2024-02-14T00:32:50;96770.72;;;4.62;66.86
16094;BME280;8151;47.824;12.092;2024-02-14T00:35:19;96772.50;;;4.62;66.86
16094;BME280;8151;47.824;12.092;2024-02-14T00:37:47;96768.22;;;4.61;66.64
16094;BME280;8151;47.824;12.092;2024-02-14T00:40:16;96767.38;;;4.60;66.74
16094;BME280;8151;47.824;12.092;2024-02-14T00:42:45;96774.16;;;4.63;66.86
16094;BME280;8151;47.824;12.092;2024-02-14T00:45:13;96773.09;;;4.65;66.80
16094;BME280;8151;47.824;12.092;2024-02-14T00:47:43;96780.81;;;4.67;66.79
16094;BME280;8151;47.824;12.092;2024-02-14T00:50:12;96785.25;;;4.66;66.72
16094;BME280;8151;47.824;12.092;2024-02-14T00:52:41;96787.03;;;4.66;66.82
16094;BME280;8151;47.824;12.092;2024-02-14T00:55:10;96787.03;;;4.66;66.99
16094;BME280;8151;47.824;12.092;2024-02-14T00:57:39;96785.97;;;4.68;66.63
16094;BME280;8151;47.824;12.092;2024-02-14T01:00:08;96783.44;;;4.67;66.94
16094;BME280;8151;47.824;12.092;2024-02-14T01:02:37;96780.97;;;4.65;67.17
16094;BME280;8151;47.824;12.092;2024-02-14T01:05:07;96785.63;;;4.62;67.06
16094;BME280;8151;47.824;12.092;2024-02-14T01:07:36;96793.00;;;4.57;67.21
16094;BME280;8151;47.824;12.092;2024-02-14T01:10:05;96783.59;;;4.54;67.20
16094;BME280;8151;47.824;12.092;2024-02-14T01:12:34;96784.91;;;4.48;67.44
16094;BME280;8151;47.824;12.092;2024-02-14T01:15:04;96792.41;;;4.42;67.64
16094;BME280;8151;47.824;12.092;2024-02-14T01:17:32;96785.28;;;4.32;67.64
16094;BME280;8151;47.824;12.092;2024-02-14T01:20:04;96790.63;;;4.31;67.86
16094;BME280;8151;47.824;12.092;2024-02-14T01:22:34;96789.19;;;4.27;68.09
16094;BME280;8151;47.824;12.092;2024-02-14T01:25:03;96799.19;;;4.22;68.10
16094;BME280;8151;47.824;12.092;2024-02-14T01:27:33;96797.53;;;4.21;68.18
16094;BME280;8151;47.824;12.092;2024-02-14T01:30:02;96804.44;;;4.22;68.10
16094;BME280;8151;47.824;12.092;2024-02-14T01:32:32;96799.88;;;4.12;68.07
16094;BME280;8151;47.824;12.092;2024-02-14T01:35:00;96809.03;;;4.07;68.41
16094;BME280;8151;47.824;12.092;2024-02-14T01:37:29;96801.56;;;4.02;68.24
16094;BME280;8151;47.824;12.092;2024-02-14T01:39:59;96799.44;;;4.07;68.22
16094;BME280;8151;47.824;12.092;2024-02-14T01:42:27;96797.63;;;4.08;67.93
16094;BME280;8151;47.824;12.092;2024-02-14T01:44:56;96796.09;;;4.05;67.91
16094;BME280;8151;47.824;12.092;2024-02-14T01:47:24;96809.03;;;4.07;68.16
16094;BME280;8151;47.824;12.092;2024-02-14T01:49:53;96805.97;;;4.13;67.60
16094;BME280;8151;47.824;12.092;2024-02-14T01:52:22;96811.78;;;4.17;67.74
16094;BME280;8151;47.824;12.092;2024-02-14T01:54:51;96807.16;;;4.20;67.94
16094;BME280;8151;47.824;12.092;2024-02-14T01:57:21;96805.13;;;4.24;67.32
16094;BME280;8151;47.824;12.092;2024-02-14T01:59:51;96805.13;;;4.24;67.65
16094;BME280;8151;47.824;12.092;2024-02-14T02:02:22;96798.09;;;4.24;67.76
16094;BME280;8151;47.824;12.092;2024-02-14T02:04:50;96805.84;;;4.26;67.69
16094;BME280;8151;47.824;12.092;2024-02-14T02:07:19;96804.44;;;4.22;67.41
16094;BME280;8151;47.824;12.092;2024-02-14T02:09:47;96803.94;;;4.17;67.79
16094;BME280;8151;47.824;12.092;2024-02-14T02:12:16;96800.13;;;4.09;67.86
16094;BME280;8151;47.824;12.092;2024-02-14T02:14:46;96797.75;;;4.06;67.52
16094;BME280;8151;47.824;12.092;2024-02-14T02:17:14;96795.63;;;4.11;67.75
16094;BME280;8151;47.824;12.092;2024-02-14T02:19:44;96800.25;;;4.19;67.39
16094;BME280;8151;47.824;12.092;2024-02-14T02:22:13;96804.91;;;4.27;67.26
16094;BME280;8151;47.824;12.092;2024-02-14T02:24:43;96805.03;;;4.37;67.38
16094;BME280;8151;47.824;12.092;2024-02-14T02:27:12;96802.06;;;4.41;66.77
16094;BME280;8151;47.824;12.092;2024-02-14T02:29:43;96805.28;;;4.45;66.60
16094;BME280;8151;47.824;12.092;2024-02-14T02:32:13;96816.34;;;4.48;66.67
16094;BME280;8151;47.824;12.092;2024-02-14T02:34:43;96797.91;;;4.50;66.48
16094;BME280;8151;47.824;12.092;2024-02-14T02:37:12;96806.22;;;4.55;66.14
16094;BME280;8151;47.824;12.092;2024-02-14T02:39:40;96810.50;;;4.56;66.19
16094;BME280;8151;47.824;12.092;2024-02-14T02:42:10;96805.16;;;4.58;66.16
16094;BME280;8151;47.824;12.092;2024-02-14T02:44:39;96806.81;;;4.59;65.99
16094;BME280;8151;47.824;12.092;2024-02-14T02:47:07;96814.69;;;4.59;66.24
16094;BME280;8151;47.824;12.092;2024-02-14T02:49:38;96809.31;;;4.60;66.23
16094;BME280;8151;47.824;12.092;2024-02-14T02:52:06;96807.53;;;4.61;66.22
16094;BME280;8151;47.824;12.092;2024-02-14T02:54:35;96803.97;;;4.62;66.39
16094;BME280;8151;47.824;12.092;2024-02-14T02:57:03;96807.41;;;4.62;66.14
16094;BME280;8151;47.824;12.092;2024-02-14T02:59:34;96802.06;;;4.64;66.25
16094;BME280;8151;47.824;12.092;2024-02-14T03:02:02;96798.34;;;4.66;66.01
16094;BME280;8151;47.824;12.092;2024-02-14T03:04:35;96804.41;;;4.67;66.19
16094;BME280;8151;47.824;12.092;2024-02-14T03:07:18;96799.06;;;4.68;65.90
16094;BME280;8151;47.824;12.092;2024-02-14T03:09:48;96804.19;;;4.70;66.06
16094;BME280;8151;47.824;12.092;2024-02-14T03:12:16;96811.09;;;4.71;65.79
16094;BME280;8151;47.824;12.092;2024-02-14T03:14:47;96802.28;;;4.72;66.11
16094;BME280;8151;47.824;12.092;2024-02-14T03:17:16;96805.72;;;4.72;65.74
16094;BME280;8151;47.824;12.092;2024-02-14T03:19:45;96801.34;;;4.73;65.42
16094;BME280;8151;47.824;12.092;2024-02-14T03:22:15;96803.00;;;4.74;65.27
16094;BME280;8151;47.824;12.092;2024-02-14T03:24:46;96809.91;;;4.75;65.59
16094;BME280;8151;47.824;12.092;2024-02-14T03:27:15;96807.28;;;4.75;65.92
16094;BME280;8151;47.824;12.092;2024-02-14T03:29:44;96814.28;;;4.74;65.68
16094;BME280;8151;47.824;12.092;2024-02-14T03:32:16;96810.13;;;4.72;65.24
16094;BME280;8151;47.824;12.092;2024-02-14T03:34:44;96797.03;;;4.72;65.87
16094;BME280;8151;47.824;12.092;2024-02-14T03:37:13;96821.56;;;4.71;65.26
16094;BME280;8151;47.824;12.092;2024-02-14T03:39:42;96817.28;;;4.70;65.46
16094;BME280;8151;47.824;12.092;2024-02-14T03:42:10;96810.38;;;4.69;65.87
16094;BME280;8151;47.824;12.092;2024-02-14T03:44:38;96818.59;;;4.64;65.50
16094;BME280;8151;47.824;12.092;2024-02-14T03:47:08;96808.34;;;4.61;65.29
16094;BME280;8151;47.824;12.092;2024-02-14T03:49:37;96805.72;;;4.61;65.35
16094;BME280;8151;47.824;12.092;2024-02-14T03:52:08;96805.72;;;4.61;65.22
16094;BME280;8151;47.824;12.092;2024-02-14T03:54:37;96802.41;;;4.59;65.72
16094;BME280;8151;47.824;12.092;2024-02-14T03:57:06;96788.56;;;4.57;65.31
16094;BME280;8151;47.824;12.092;2024-02-14T03:59:36;96800.84;;;4.57;65.95
16094;BME280;8151;47.824;12.092;2024-02-14T04:02:06;96807.91;;;4.56;65.42
16094;BME280;8151;47.824;12.092;2024-02-14T04:04:41;96806.09;;;4.57;65.45
16094;BME280;8151;47.824;12.092;2024-02-14T04:07:11;96802.88;;;4.53;65.42
16094;BME280;8151;47.824;12.092;2024-02-14T04:09:39;96800.38;;;4.51;65.37
16094;BME280;8151;47.824;12.092;2024-02-14T04:12:08;96800.63;;;4.48;65.68
16094;BME280;8151;47.824;12.092;2024-02-14T04:14:37;96801.69;;;4.46;65.19
16094;BME280;8151;47.824;12.092;2024-02-14T04:17:06;96804.44;;;4.44;65.13
16094;BME280;8151;47.824;12.092;2024-02-14T04:19:35;96801.94;;;4.43;65.47
16094;BME280;8151;47.824;12.092;2024-02-14T04:22:05;96808.97;;;4.42;65.48
16094;BME280;8151;47.824;12.092;2024-02-14T04:24:34;96823.00;;;4.41;65.27
16094;BME280;8151;47.824;12.092;2024-02-14T04:27:03;96798.50;;;4.42;65.24
16094;BME280;8151;47.824;12.092;2024-02-14T04:29:32;96797.53;;;4.43;65.02
16094;BME280;8151;47.824;12.092;2024-02-14T04:32:05;96811.59;;;4.42;65.41
16094;BME280;8151;47.824;12.092;2024-02-14T04:34:36;96809.91;;;4.41;65.60
16094;BME280;8151;47.824;12.092;2024-02-14T04:37:08;96805.50;;;4.42;65.08
16094;BME280;8151;47.824;12.092;2024-02-14T04:39:39;96811.81;;;4.39;65.14
16094;BME280;8151;47.824;12.092;2024-02-14T04:42:08;96814.56;;;4.38;65.24
16094;BME280;8151;47.824;12.092;2024-02-14T04:44:36;96801.56;;;4.36;65.24
16094;BME280;8151;47.824;12.092;2024-02-14T04:47:06;96808.72;;;4.34;64.97
16094;BME280;8151;47.824;12.092;2024-02-14T04:49:36;96808.00;;;4.32;65.00
16094;BME280;8151;47.824;12.092;2024-02-14T04:52:05;96800.38;;;4.29;65.58
16094;BME280;8151;47.824;12.092;2024-02-14T04:54:36;96810.16;;;4.27;65.26
16094;BME280;8151;47.824;12.092;2024-02-14T04:57:04;96816.44;;;4.24;65.90
16094;BME280;8151;47.824;12.092;2024-02-14T04:59:33;96807.03;;;4.22;65.93
16094;BME280;8151;47.824;12.092;2024-02-14T05:02:02;96795.84;;;4.20;65.66
16094;BME280;8151;47.824;12.092;2024-02-14T05:04:30;96796.78;;;4.19;65.70
16094;BME280;8151;47.824;12.092;2024-02-14T05:06:58;96802.19;;;4.17;65.65
16094;BME280;8151;47.824;12.092;2024-02-14T05:09:27;96803.94;;;4.17;65.46
16094;BME280;8151;47.824;12.092;2024-02-14T05:11:57;96804.06;;;4.15;65.90
16094;BME280;8151;47.824;12.092;2024-02-14T05:14:26;96802.50;;;4.12;65.29
16094;BME280;8151;47.824;12.092;2024-02-14T05:16:58;96793.81;;;4.12;65.44
16094;BME280;8151;47.824;12.092;2024-02-14T05:19:28;96806.09;;;4.11;65.79
16094;BME280;8151;47.824;12.092;2024-02-14T05:21:57;96794.03;;;4.09;65.20
16094;BME280;8151;47.824;12.092;2024-02-14T05:24:26;96789.88;;;4.06;66.08
16094;BME280;8151;47.824;12.092;2024-02-14T05:26:57;96783.94;;;4.04;65.80
16094;BME280;8151;47.824;12.092;2024-02-14T05:29:26;96791.78;;;4.04;65.98
16094;BME280;8151;47.824;12.092;2024-02-14T05:31:54;96793.69;;;4.02;65.66
16094;BME280;8151;47.824;12.092;2024-02-14T05:34:23;96803.44;;;4.00;65.79
16094;BME280;8151;47.824;12.092;2024-02-14T05:36:52;96791.19;;;4.01;65.56
16094;BME280;8151;47.824;12.092;2024-02-14T05:39:20;96802.25;;;4.04;65.75
16094;BME280;8151;47.824;12.092;2024-02-14T05:41:49;96796.81;;;4.07;65.51
16094;BME280;8151;47.824;12.092;2024-02-14T05:44:20;96805.22;;;4.11;65.67
16094;BME280;8151;47.824;12.092;2024-02-14T05:46:49;96797.97;;;4.14;65.34
16094;BME280;8151;47.824;12.092;2024-02-14T05:49:18;96800.50;;;4.16;65.42
16094;BME280;8151;47.824;12.092;2024-02-14T05:51:46;96803.81;;;4.18;65.80
16094;BME280;8151;47.824;12.092;2024-02-14T05:54:14;96805.50;;;4.19;65.17
16094;BME280;8151;47.824;12.092;2024-02-14T05:56:43;96805.50;;;4.19;65.45
16094;BME280;8151;47.824;12.092;2024-02-14T05:59:11;96803.00;;;4.18;65.46
16094;BME280;8151;47.824;12.092;2024-02-14T06:01:41;96809.06;;;4.18;65.63
16094;BME280;8151;47.824;12.092;2024-02-14T06:04:10;96831.81;;;4.18;65.03
16094;BME280;8151;47.824;12.092;2024-02-14T06:06:38;96810.75;;;4.19;65.33
16094;BME280;8151;47.824;12.092;2024-02-14T06:09:07;96808.13;;;4.19;65.34
16094;BME280;8151;47.824;12.092;2024-02-14T06:11:38;96818.72;;;4.18;65.24
16094;BME280;8151;47.824;12.092;2024-02-14T06:14:07;96809.16;;;4.17;65.56
16094;BME280;8151;47.824;12.092;2024-02-14T06:16:37;96807.41;;;4.17;65.63
16094;BME280;8151;47.824;12.092;2024-02-14T06:19:07;96823.13;;;4.17;65.22
16094;BME280;8151;47.824;12.092;2024-02-14T06:21:36;96813.47;;;4.18;64.94
16094;BME280;8151;47.824;12.092;2024-02-14T06:24:05;96813.38;;;4.19;65.08
16094;BME280;8151;47.824;12.092;2024-02-14T06:26:34;96813.25;;;4.21;65.43
16094;BME280;8151;47.824;12.092;2024-02-14T06:29:02;96825.97;;;4.25;65.28
16094;BME280;8151;47.824;12.092;2024-02-14T06:31:33;96841.59;;;4.27;64.97
16094;BME280;8151;47.824;12.092;2024-02-14T06:34:02;96823.00;;;4.30;65.15
16094;BME280;8151;47.824;12.092;2024-02-14T06:36:32;96835.06;;;4.32;64.93
16094;BME280;8151;47.824;12.092;2024-02-14T06:39:01;96839.22;;;4.35;65.15
16094;BME280;8151;47.824;12.092;2024-02-14T06:41:29;96844.22;;;4.38;64.80
16094;BME280;8151;47.824;12.092;2024-02-14T06:43:58;96849.31;;;4.40;64.84
16094;BME280;8151;47.824;12.092;2024-02-14T06:46:27;96839.44;;;4.43;65.32
16094;BME280;8151;47.824;12.092;2024-02-14T06:48:56;96851.59;;;4.44;65.09
16094;BME280;8151;47.824;12.092;2024-02-14T06:51:24;96858.38;;;4.47;64.96
16094;BME280;8151;47.824;12.092;2024-02-14T06:53:54;96844.22;;;4.49;64.71
16094;BME280;8151;47.824;12.092;2024-02-14T06:56:23;96850.16;;;4.51;64.73
16094;BME280;8151;47.824;12.092;2024-02-14T06:58:51;96852.56;;;4.54;64.99
16094;BME280;8151;47.824;12.092;2024-02-14T07:01:26;96859.22;;;4.59;65.01
16094;BME280;8151;47.824;12.092;2024-02-14T07:03:56;96859.81;;;4.62;64.51
16094;BME280;8151;47.824;12.092;2024-02-14T07:06:25;96864.00;;;4.65;64.55
16094;BME280;8151;47.824;12.092;2024-02-14T07:08:55;96876.97;;;4.66;64.91
16094;BME280;8151;47.824;12.092;2024-02-14T07:11:23;96870.66;;;4.69;64.93
16094;BME280;8151;47.824;12.092;2024-02-14T07:13:52;96878.53;;;4.69;64.63
16094;BME280;8151;47.824;12.092;2024-02-14T07:16:20;96875.78;;;4.70;64.66
16094;BME280;8151;47.824;12.092;2024-02-14T07:18:49;96866.88;;;4.73;64.56
16094;BME280;8151;47.824;12.092;2024-02-14T07:21:18;96861.47;;;4.74;64.37
16094;BME280;8151;47.824;12.092;2024-02-14T07:23:46;96874.59;;;4.74;64.69
16094;BME280;8151;47.824;12.092;2024-02-14T07:26:16;96872.81;;;4.75;64.43
16094;BME280;8151;47.824;12.092;2024-02-14T07:28:45;96877.81;;;4.78;64.29
16094;BME280;8151;47.824;12.092;2024-02-14T07:31:13;96887.22;;;4.81;64.34
16094;BME280;8151;47.824;12.092;2024-02-14T07:33:42;96883.66;;;4.82;64.20
16094;BME280;8151;47.824;12.092;2024-02-14T07:36:12;96882.72;;;4.83;64.28
16094;BME280;8151;47.824;12.092;2024-02-14T07:38:40;96889.38;;;4.87;64.23
16094;BME280;8151;47.824;12.092;2024-02-14T07:41:09;96894.47;;;4.88;64.34
16094;BME280;8151;47.824;12.092;2024-02-14T07:43:39;96897.09;;;4.88;64.45
16094;BME280;8151;47.824;12.092;2024-02-14T07:46:08;96895.22;;;4.90;64.05
16094;BME280;8151;47.824;12.092;2024-02-14T07:48:36;96902.84;;;4.93;64.29
16094;BME280;8151;47.824;12.092;2024-02-14T07:51:07;96905.22;;;4.97;63.71
16094;BME280;8151;47.824;12.092;2024-02-14T07:53:35;96887.59;;;4.99;64.15
16094;BME280;8151;47.824;12.092;2024-02-14T07:56:04;96897.00;;;5.01;63.67
16094;BME280;8151;47.824;12.092;2024-02-14T07:58:33;96908.19;;;5.03;63.57
16094;BME280;8151;47.824;12.092;2024-02-14T08:01:03;96907.84;;;5.08;63.62
16094;BME280;8151;47.824;12.092;2024-02-14T08:03:32;96899.63;;;5.12;63.51
16094;BME280;8151;47.824;12.092;2024-02-14T08:06:00;96904.59;;;5.16;63.57
16094;BME280;8151;47.824;12.092;2024-02-14T08:08:29;96909.50;;;5.20;63.76
16094;BME280;8151;47.824;12.092;2024-02-14T08:10:58;96909.25;;;5.23;63.19
16094;BME280;8151;47.824;12.092;2024-02-14T08:13:27;96928.09;;;5.28;63.16
16094;BME280;8151;47.824;12.092;2024-02-14T08:15:56;96899.94;;;5.30;62.72
16094;BME280;8151;47.824;12.092;2024-02-14T08:18:26;96909.34;;;5.33;62.76
16094;BME280;8151;47.824;12.092;2024-02-14T08:20:55;96907.31;;;5.37;62.75
16094;BME280;8151;47.824;12.092;2024-02-14T08:23:24;96908.72;;;5.41;62.84
16094;BME280;8151;47.824;12.092;2024-02-14T08:25:52;96911.25;;;5.42;63.07
16094;BME280;8151;47.824;12.092;2024-02-14T08:28:21;96923.16;;;5.46;62.53
16094;BME280;8151;47.824;12.092;2024-02-14T08:30:49;96928.88;;;5.51;62.32
16094;BME280;8151;47.824;12.092;2024-02-14T08:33:18;96918.97;;;5.55;62.16
16094;BME280;8151;47.824;12.092;2024-02-14T08:35:48;96910.84;;;5.58;62.66
16094;BME280;8151;47.824;12.092;2024-02-14T08:38:17;96920.28;;;5.61;62.06
16094;BME280;8151;47.824;12.092;2024-02-14T08:40:45;96912.28;;;5.62;62.21
16094;BME280;8151;47.824;12.092;2024-02-14T08:43:13;96911.31;;;5.63;62.21
16094;BME280;8151;47.824;12.092;2024-02-14T08:45:43;96919.06;;;5.65;61.90
16094;BME280;8151;47.824;12.092;2024-02-14T08:48:11;96914.66;;;5.65;62.46
16094;BME280;8151;47.824;12.092;2024-02-14T08:50:40;96920.59;;;5.67;62.60
16094;BME280;8151;47.824;12.092;2024-02-14T08:53:10;96918.56;;;5.71;61.88
16094;BME280;8151;47.824;12.092;2024-02-14T08:55:40;96916.53;;;5.75;62.44
16094;BME280;8151;47.824;12.092;2024-02-14T08:58:09;96919.03;;;5.76;62.31
16094;BME280;8151;47.824;12.092;2024-02-14T09:00:37;96909.25;;;5.78;61.83
16094;BME280;8151;47.824;12.092;2024-02-14T09:03:08;96909.13;;;5.80;61.75
16094;BME280;8151;47.824;12.092;2024-02-14T09:05:36;96920.34;;;5.82;61.74
16094;BME280;8151;47.824;12.092;2024-02-14T09:08:06;96921.03;;;5.84;61.67
16094;BME280;8151;47.824;12.092;2024-02-14T09:10:36;96911.38;;;5.84;62.14
16094;BME280;8151;47.824;12.092;2024-02-14T09:13:04;96915.78;;;5.84;61.97
16094;BME280;8151;47.824;12.092;2024-02-14T09:15:34;96917.56;;;5.83;62.12
16094;BME280;8151;47.824;12.092;2024-02-14T09:18:03;96912.47;;;5.82;61.84
16094;BME280;8151;47.824;12.092;2024-02-14T09:20:32;96914.22;;;5.81;61.82
16094;BME280;8151;47.824;12.092;2024-02-14T09:23:01;96923.09;;;5.80;61.64
16094;BME280;8151;47.824;12.092;2024-02-14T09:25:29;96916.84;;;5.81;61.86
16094;BME280;8151;47.824;12.092;2024-02-14T09:27:59;96917.72;;;5.82;61.83
16094;BME280;8151;47.824;12.092;2024-02-14T09:30:27;96937.84;;;5.81;61.76
16094;BME280;8151;47.824;12.092;2024-02-14T09:33:05;96929.16;;;5.81;62.00
16094;BME280;8151;47.824;12.092;2024-02-14T09:35:34;96926.28;;;5.84;61.31
16094;BME280;8151;47.824;12.092;2024-02-14T09:38:05;96923.53;;;5.85;61.77
16094;BME280;8151;47.824;12.092;2024-02-14T09:40:33;96930.44;;;5.86;61.66
16094;BME280;8151;47.824;12.092;2024-02-14T09:43:05;96923.28;;;5.88;61.31
16094;BME280;8151;47.824;12.092;2024-02-14T09:45:39;96930.06;;;5.91;61.43
16094;BME280;8151;47.824;12.092;2024-02-14T09:48:09;96928.16;;;5.93;61.20
16094;BME280;8151;47.824;12.092;2024-02-14T09:50:39;96918.25;;;5.97;61.12
16094;BME280;8151;47.824;12.092;2024-02-14T09:53:07;96935.59;;;5.99;60.69
16094;BME280;8151;47.824;12.092;2024-02-14T09:55:38;96919.44;;;6.04;60.62
16094;BME280;8151;47.824;12.092;2024-02-14T09:58:08;96936.38;;;6.11;60.60
16094;BME280;8151;47.824;12.092;2024-02-14T10:00:37;96934.06;;;6.18;60.70
16094;BME280;8151;47.824;12.092;2024-02-14T10:03:08;96930.78;;;6.25;60.10
16094;BME280;8151;47.824;12.092;2024-02-14T10:05:36;96938.75;;;6.35;60.20
16094;BME280;8151;47.824;12.092;2024-02-14T10:08:05;96943.25;;;6.44;59.83
16094;BME280;8151;47.824;12.092;2024-02-14T10:10:37;96924.19;;;6.52;59.79
16094;BME280;8151;47.824;12.092;2024-02-14T10:13:05;96931.69;;;6.57;60.03
16094;BME280;8151;47.824;12.092;2024-02-14T10:15:35;96933.78;;;6.63;59.50
16094;BME280;8151;47.824;12.092;2024-02-14T10:18:04;96918.47;;;6.68;59.82
16094;BME280;8151;47.824;12.092;2024-02-14T10:20:34;96913.25;;;6.78;59.58
16094;BME280;8151;47.824;12.092;2024-02-14T10:23:08;96912.47;;;6.87;59.24
16094;BME280;8151;47.824;12.092;2024-02-14T10:25:37;96905.88;;;6.93;59.21
16094;BME280;8151;47.824;12.092;2024-02-14T10:28:05;96912.25;;;7.00;59.24
16094;BME280;8151;47.824;12.092;2024-02-14T10:30:37;96908.41;;;7.04;59.31
16094;BME280;8151;47.824;12.092;2024-02-14T10:33:07;96906.31;;;7.07;59.29
16094;BME280;8151;47.824;12.092;2024-02-14T10:35:52;96913.38;;;7.07;59.35
16094;BME280;8151;47.824;12.092;2024-02-14T10:38:25;96909.09;;;7.06;59.88
16094;BME280;8151;47.824;12.092;2024-02-14T10:40:56;96903.69;;;7.07;59.86
16094;BME280;8151;47.824;12.092;2024-02-14T10:43:27;96892.09;;;7.10;59.91
16094;BME280;8151;47.824;12.092;2024-02-14T10:46:00;96901.63;;;7.11;60.27
16094;BME280;8151;47.824;12.092;2024-02-14T10:48:31;96895.41;;;7.12;60.32
16094;BME280;8151;47.824;12.092;2024-02-14T10:51:04;96885.28;;;7.17;60.02
16094;BME280;8151;47.824;12.092;2024-02-14T10:53:34;96881.16;;;7.24;60.14
16094;BME280;8151;47.824;12.092;2024-02-14T10:56:04;96888.00;;;7.37;59.96
16094;BME280;8151;47.824;12.092;2024-02-14T10:58:34;96886.47;;;7.44;59.93
16094;BME280;8151;47.824;12.092;2024-02-14T11:01:05;96879.56;;;7.53;59.98
16094;BME280;8151;47.824;12.092;2024-02-14T11:03:35;96873.88;;;7.57;59.66
16094;BME280;8151;47.824;12.092;2024-02-14T11:06:04;96870.00;;;7.61;59.34
16094;BME280;8151;47.824;12.092;2024-02-14T11:08:33;96867.69;;;7.68;59.34
16094;BME280;8151;47.824;12.092;2024-02-14T11:11:02;96860.72;;;7.77;59.31
16094;BME280;8151;47.824;12.092;2024-02-14T11:13:31;96868.50;;;7.88;58.98
16094;BME280;8151;47.824;12.092;2024-02-14T11:16:01;96850.59;;;8.01;59.14
16094;BME280;8151;47.824;12.092;2024-02-14T11:18:30;96851.28;;;8.13;58.50
16094;BME280;8151;47.824;12.092;2024-02-14T11:21:03;96857.22;;;8.25;58.43
16094;BME280;8151;47.824;12.092;2024-02-14T11:23:32;96857.06;;;8.36;58.49
16094;BME280;8151;47.824;12.092;2024-02-14T11:26:02;96856.63;;;8.41;58.57
16094;BME280;8151;47.824;12.092;2024-02-14T11:28:31;96843.34;;;8.42;58.18
16094;BME280;8151;47.824;12.092;2024-02-14T11:31:07;96839.59;;;8.45;58.15
16094;BME280;8151;47.824;12.092;2024-02-14T11:33:38;96838.31;;;8.49;58.07
16094;BME280;8151;47.824;12.092;2024-02-14T11:36:08;96829.16;;;8.53;58.36
16094;BME280;8151;47.824;12.092;2024-02-14T11:38:40;96827.06;;;8.57;58.10
16094;BME280;8151;47.824;12.092;2024-02-14T11:41:11;96834.69;;;8.60;57.79
16094;BME280;8151;47.824;12.092;2024-02-14T11:43:50;96837.75;;;8.65;57.28
16094;BME280;8151;47.824;12.092;2024-02-14T11:46:19;96842.28;;;8.73;57.50
16094;BME280;8151;47.824;12.092;2024-02-14T11:48:49;96841.84;;;8.77;57.41
16094;BME280;8151;47.824;12.092;2024-02-14T11:51:20;96838.94;;;8.80;57.78
16094;BME280;8151;47.824;12.092;2024-02-14T11:53:48;96839.44;;;8.84;57.36
16094;BME280;8151;47.824;12.092;2024-02-14T11:56:17;96836.66;;;8.85;56.94
16094;BME280;8151;47.824;12.092;2024-02-14T11:58:45;96833.06;;;8.86;57.36
16094;BME280;8151;47.824;12.092;2024-02-14T12:01:18;96833.88;;;8.87;57.28
16094;BME280;8151;47.824;12.092;2024-02-14T12:03:46;96826.78;;;8.87;56.58
16094;BME280;8151;47.824;12.092;2024-02-14T12:06:16;96822.38;;;8.88;56.97
16094;BME280;8151;47.824;12.092;2024-02-14T12:08:45;96829.97;;;8.91;56.50
16094;BME280;8151;47.824;12.092;2024-02-14T12:11:14;96822.75;;;8.93;56.41
16094;BME280;8151;47.824;12.092;2024-02-14T12:13:42;96820.50;;;8.98;56.46
16094;BME280;8151;47.824;12.092;2024-02-14T12:16:14;96824.66;;;9.01;55.86
16094;BME280;8151;47.824;12.092;2024-02-14T12:18:43;96826.19;;;9.03;55.72
16094;BME280;8151;47.824;12.092;2024-02-14T12:21:11;96828.66;;;9.05;56.13
16094;BME280;8151;47.824;12.092;2024-02-14T12:23:42;96813.50;;;9.07;56.03
16094;BME280;8151;47.824;12.092;2024-02-14T12:26:10;96819.31;;;9.11;55.92
16094;BME280;8151;47.824;12.092;2024-02-14T12:28:46;96817.22;;;9.14;55.91
16094;BME280;8151;47.824;12.092;2024-02-14T12:31:21;96812.63;;;9.16;55.39
16094;BME280;8151;47.824;12.092;2024-02-14T12:33:50;96815.66;;;9.21;55.42
16094;BME280;8151;47.824;12.092;2024-02-14T12:36:21;96810.75;;;9.26;55.43
16094;BME280;8151;47.824;12.092;2024-02-14T12:38:51;96821.41;;;9.35;55.30
16094;BME280;8151;47.824;12.092;2024-02-14T12:41:21;96817.16;;;9.42;55.00
16094;BME280;8151;47.824;12.092;2024-02-14T12:43:50;96826.84;;;9.51;54.58
16094;BME280;8151;47.824;12.092;2024-02-14T12:46:19;96839.97;;;9.61;54.71
16094;BME280;8151;47.824;12.092;2024-02-14T12:48:47;96832.81;;;9.71;54.69
16094;BME280;8151;47.824;12.092;2024-02-14T12:51:16;96829.88;;;9.74;54.30
16094;BME280;8151;47.824;12.092;2024-02-14T12:53:45;96838.94;;;9.72;54.67
16094;BME280;8151;47.824;12.092;2024-02-14T12:56:15;96828.97;;;9.65;54.18
16094;BME280;8151;47.824;12.092;2024-02-14T12:58:43;96823.97;;;9.62;54.55
16094;BME280;8151;47.824;12.092;2024-02-14T13:01:13;96833.88;;;9.60;54.03
16094;BME280;8151;47.824;12.092;2024-02-14T13:03:42;96822.63;;;9.58;53.84
16094;BME280;8151;47.824;12.092;2024-02-14T13:06:10;96816.53;;;9.58;54.05
16094;BME280;8151;47.824;12.092;2024-02-14T13:08:41;96826.22;;;9.57;54.13
16094;BME280;8151;47.824;12.092;2024-02-14T13:11:10;96816.19;;;9.61;53.88
16094;BME280;8151;47.824;12.092;2024-02-14T13:13:40;96824.13;;;9.61;53.54
16094;BME280;8151;47.824;12.092;2024-02-14T13:16:09;96828.31;;;9.63;54.01
16094;BME280;8151;47.824;12.092;2024-02-14T13:18:38;96815.59;;;9.67;53.49
16094;BME280;8151;47.824;12.092;2024-02-14T13:21:07;96808.88;;;9.73;53.37